Time;durP1;ratioP1;P1;durP2;ratioP2;P2;SDS_P1;SDS_P2;PMS_P1;PMS_P2;Temp;Humidity;BMP_temperature;BMP_pressure;BME280_temperature;BME280_humidity;BME280_pressure;Samples;Min_cycle;Max_cycle;Signal;HPM_P1;HPM_P2
2021/06/03 00:00:50;;;;;;;;;;;;;;;;;;1482811;40;7035;-64
2021/06/03 00:01:53;;;;;;;;;;;;;;;;;;1482720;40;7153;-63
2021/06/03 00:02:56;;;;;;;;;;;;;;;;;;1482717;40;6995;-64
2021/06/03 00:03:59;;;;;;;;;;;;;;;;;;1482818;40;7896;-66
2021/06/03 00:05:02;;;;;;;;;;;;;;;;;;1482970;40;7087;-64
2021/06/03 00:06:05;;;;;;;;;;;;;;;;;;1482892;40;7004;-63
2021/06/03 00:07:09;;;;;;;;;;;;;;;;;;1482979;40;6996;-63
2021/06/03 00:08:13;;;;;;;;;;;;;;;;;;1483237;40;7910;-65
2021/06/03 00:09:16;;;;;;;;;;;;;;;;;;1479465;40;7016;-62
2021/06/03 00:10:22;;;;;;;;;;;;;;;;;;1483164;40;8045;-62
2021/06/03 00:11:25;;;;;;;;;;;;;;;;;;1482521;40;7034;-63
2021/06/03 00:12:28;;;;;;;;;;;;;;;;;;1483091;40;6999;-65
2021/06/03 00:13:32;;;;;;;;;;;;;;;;;;1483252;40;7901;-65
2021/06/03 00:14:34;;;;;;;;;;;;;;;;;;1478826;40;7907;-64
2021/06/03 00:15:37;;;;;;;;;;;;;;;;;;1478961;40;7000;-65
2021/06/03 00:16:39;;;;;;;;;;;;;;;;;;1478842;40;7007;-65
2021/06/03 00:17:43;;;;;;;;;;;;;;;;;;1480193;40;7031;-64
2021/06/03 00:18:45;;;;;;;;;;;;;;;;;;1482356;40;7040;-65
2021/06/03 00:19:48;;;;;;;;;;;;;;;;;;1478668;40;7000;-64
2021/06/03 00:20:50;;;;;;;;;;;;;;;;;;1478799;40;7912;-65
2021/06/03 00:21:54;;;;;;;;;;;;;;;;;;1481736;40;7019;-67
2021/06/03 00:22:57;;;;;;;;;;;;;;;;;;1481295;40;7019;-63
2021/06/03 00:24:00;;;;;;;;;;;;;;;;;;1478319;40;8940;-61
2021/06/03 00:25:03;;;;;;;;;;;;;;;;;;1481642;40;7020;-62
2021/06/03 00:26:06;;;;;;;;;;;;;;;;;;1482732;40;6999;-66
2021/06/03 00:27:08;;;;;;;;;;;;;;;;;;1482716;40;7080;-62
2021/06/03 00:28:11;;;;;;;;;;;;;;;;;;1482444;40;7008;-63
2021/06/03 00:29:14;;;;;;;;;;;;;;;;;;1482621;40;8896;-64
2021/06/03 00:30:17;;;;;;;;;;;;;;;;;;1482802;40;7964;-65
2021/06/03 00:31:20;;;;;;;;;;;;;;;;;;1482725;40;7035;-64
2021/06/03 00:32:22;;;;;;;;;;;;;;;;;;1480228;40;7003;-65
2021/06/03 00:33:25;;;;;;;;;;;;;;;;;;1478701;40;6987;-64
2021/06/03 00:34:27;;;;;;;;;;;;;;;;;;1478440;40;7003;-64
2021/06/03 00:35:30;;;;;;;;;;;;;;;;;;1478840;40;7399;-65
2021/06/03 00:36:32;;;;;;;;;;;;;;;;;;1478196;40;7023;-64
2021/06/03 00:37:35;;;;;;;;;;;;;;;;;;1478489;40;7012;-65
2021/06/03 00:38:37;;;;;;;;;;;;;;;;;;1478778;40;7008;-62
2021/06/03 00:39:40;;;;;;;;;;;;;;;;;;1478761;40;7191;-64
2021/06/03 00:40:42;;;;;;;;;;;;;;;;;;1478611;40;7918;-64
2021/06/03 00:41:45;;;;;;;;;;;;;;;;;;1478743;40;7039;-63
2021/06/03 00:42:47;;;;;;;;;;;;;;;;;;1478994;40;7891;-64
2021/06/03 00:43:50;;;;;;;;;;;;;;;;;;1479151;40;7079;-64
2021/06/03 00:44:52;;;;;;;;;;;;;;;;;;1478924;40;7894;-64
2021/06/03 00:45:55;;;;;;;;;;;;;;;;;;1483005;40;7273;-63
2021/06/03 00:46:57;;;;;;;;;;;;;;;;;;1482804;40;7120;-62
2021/06/03 00:48:00;;;;;;;;;;;;;;;;;;1482536;40;7016;-65
2021/06/03 00:49:03;;;;;;;;;;;;;;;;;;1482605;40;7108;-63
2021/06/03 00:50:06;;;;;;;;;;;;;;;;;;1482878;40;7011;-66
2021/06/03 00:51:09;;;;;;;;;;;;;;;;;;1482888;40;7925;-63
2021/06/03 00:52:12;;;;;;;;;;;;;;;;;;1482926;40;7007;-63
2021/06/03 00:53:14;;;;;;;;;;;;;;;;;;1482889;40;7052;-65
2021/06/03 00:54:17;;;;;;;;;;;;;;;;;;1481866;40;7027;-65
2021/06/03 00:55:19;;;;;;;;;;;;;;;;;;1478468;40;6999;-62
2021/06/03 00:56:22;;;;;;;;;;;;;;;;;;1478554;40;7105;-64
2021/06/03 00:57:24;;;;;;;;;;;;;;;;;;1478617;40;7017;-62
2021/06/03 00:58:27;;;;;;;;;;;;;;;;;;1478953;40;7039;-65
2021/06/03 00:59:29;;;;;;;;;;;;;;;;;;1478708;40;7007;-62
2021/06/03 01:00:32;;;;;;;;;;;;;;;;;;1478957;40;7031;-63
2021/06/03 01:01:34;;;;;;;;;;;;;;;;;;1478915;40;7887;-64
2021/06/03 01:02:37;;;;;;;;;;;;;;;;;;1478908;40;7027;-62
2021/06/03 01:03:40;;;;;;;;;;;;;;;;;;1478495;40;7035;-64
2021/06/03 01:04:43;;;;;;;;;;;;;;;;;;1478445;40;8790;-65
2021/06/03 01:05:47;;;;;;;;;;;;;;;;;;1478493;40;7944;-62
2021/06/03 01:06:50;;;;;;;;;;;;;;;;;;1478428;40;7028;-66
2021/06/03 01:07:55;;;;;;;;;;;;;;;;;;1478426;40;7149;-64
2021/06/03 01:09:22;;;;;;;;;;;;;;;;;;1478712;40;7036;-63
2021/06/03 01:10:36;;;;;;;;;;;;;;;;;;1478488;40;7004;-64
2021/06/03 01:11:43;;;;;;;;;;;;;;;;;;1478778;40;7922;-63
2021/06/03 01:12:51;;;;;;;;;;;;;;;;;;1478528;40;6993;-64
2021/06/03 01:14:02;;;;;;;;;;;;;;;;;;1479079;40;7007;-63
2021/06/03 01:15:06;;;;;;;;;;;;;;;;;;1478981;40;7122;-66
2021/06/03 01:16:10;;;;;;;;;;;;;;;;;;1478543;40;7012;-65
2021/06/03 01:17:13;;;;;;;;;;;;;;;;;;1478806;40;7008;-65
2021/06/03 01:18:17;;;;;;;;;;;;;;;;;;1478563;40;7926;-65
2021/06/03 01:19:24;;;;;;;;;;;;;;;;;;1479505;40;7044;-66
2021/06/03 01:20:27;;;;;;;;;;;;;;;;;;1479900;40;7007;-67
2021/06/03 01:21:38;;;;;;;;;;;;;;;;;;1479790;40;8152;-64
2021/06/03 01:22:52;;;;;;;;;;;;;;;;;;1481757;40;7063;-64
2021/06/03 01:24:07;;;;;;;;;;;;;;;;;;1478809;40;7947;-65
2021/06/03 01:25:12;;;;;;;;;;;;;;;;;;1479056;39;7031;-63
2021/06/03 01:26:16;;;;;;;;;;;;;;;;;;1478774;40;7108;-64
2021/06/03 01:27:24;;;;;;;;;;;;;;;;;;1478777;40;7889;-66
2021/06/03 01:28:27;;;;;;;;;;;;;;;;;;1478600;40;7035;-65
2021/06/03 01:29:38;;;;;;;;;;;;;;;;;;1478620;40;7092;-66
2021/06/03 01:30:47;;;;;;;;;;;;;;;;;;1478935;40;7108;-64
2021/06/03 01:31:50;;;;;;;;;;;;;;;;;;1478743;40;7031;-61
2021/06/03 01:33:02;;;;;;;;;;;;;;;;;;1478508;40;7008;-65
2021/06/03 01:34:04;;;;;;;;;;;;;;;;;;1479088;40;7941;-64
2021/06/03 01:35:09;;;;;;;;;;;;;;;;;;1479444;40;7943;-65
2021/06/03 01:36:14;;;;;;;;;;;;;;;;;;1479073;40;7000;-63
2021/06/03 01:37:17;;;;;;;;;;;;;;;;;;1478678;40;7898;-63
2021/06/03 01:38:23;;;;;;;;;;;;;;;;;;1479073;40;7119;-62
2021/06/03 01:39:25;;;;;;;;;;;;;;;;;;1479176;40;7936;-63
2021/06/03 01:40:28;;;;;;;;;;;;;;;;;;1479531;40;7012;-63
2021/06/03 01:41:31;;;;;;;;;;;;;;;;;;1479549;40;7880;-64
2021/06/03 01:42:34;;;;;;;;;;;;;;;;;;1478674;40;7044;-65
2021/06/03 01:43:40;;;;;;;;;;;;;;;;;;1479132;40;6999;-63
2021/06/03 01:44:43;;;;;;;;;;;;;;;;;;1479587;40;7016;-64
2021/06/03 01:45:47;;;;;;;;;;;;;;;;;;1479452;40;7012;-63
2021/06/03 01:46:50;;;;;;;;;;;;;;;;;;1478996;40;7015;-64
2021/06/03 01:47:53;;;;;;;;;;;;;;;;;;1480569;40;8155;-62
2021/06/03 01:48:57;;;;;;;;;;;;;;;;;;1479046;40;7007;-66
2021/06/03 01:50:00;;;;;;;;;;;;;;;;;;1479063;40;7035;-65
2021/06/03 01:51:05;;;;;;;;;;;;;;;;;;1479277;40;7900;-67
2021/06/03 01:52:09;;;;;;;;;;;;;;;;;;1479107;40;7020;-64
2021/06/03 01:53:11;;;;;;;;;;;;;;;;;;1479199;40;6999;-65
2021/06/03 01:54:14;;;;;;;;;;;;;;;;;;1479093;40;7004;-66
2021/06/03 01:55:18;;;;;;;;;;;;;;;;;;1479011;40;7016;-67
2021/06/03 01:56:21;;;;;;;;;;;;;;;;;;1478895;40;7028;-65
2021/06/03 01:57:25;;;;;;;;;;;;;;;;;;1479066;40;6999;-63
2021/06/03 01:58:27;;;;;;;;;;;;;;;;;;1479436;40;7132;-63
2021/06/03 01:59:32;;;;;;;;;;;;;;;;;;1479508;40;7027;-66
2021/06/03 02:00:34;;;;;;;;;;;;;;;;;;1479230;40;7000;-65
2021/06/03 02:01:37;;;;;;;;;;;;;;;;;;1478945;40;7019;-63
2021/06/03 02:02:40;;;;;;;;;;;;;;;;;;1478794;40;7004;-62
2021/06/03 02:03:42;;;;;;;;;;;;;;;;;;1479073;40;7039;-65
2021/06/03 02:04:46;;;;;;;;;;;;;;;;;;1479027;40;7040;-65
2021/06/03 02:05:48;;;;;;;;;;;;;;;;;;1479206;40;7110;-63
2021/06/03 02:06:52;;;;;;;;;;;;;;;;;;1478835;40;7084;-63
2021/06/03 02:07:55;;;;;;;;;;;;;;;;;;1479109;40;7052;-64
2021/06/03 02:08:58;;;;;;;;;;;;;;;;;;1479203;40;7050;-64
2021/06/03 02:10:01;;;;;;;;;;;;;;;;;;1479103;40;7987;-66
2021/06/03 02:11:04;;;;;;;;;;;;;;;;;;1479573;40;7000;-64
2021/06/03 02:12:09;;;;;;;;;;;;;;;;;;1479513;40;7008;-68
2021/06/03 02:13:19;;;;;;;;;;;;;;;;;;1479126;40;7016;-65
2021/06/03 02:14:24;;;;;;;;;;;;;;;;;;1479139;40;7027;-64
2021/06/03 02:15:30;;;;;;;;;;;;;;;;;;1479331;40;7927;-66
2021/06/03 02:16:35;;;;;;;;;;;;;;;;;;1479504;40;8003;-62
2021/06/03 02:17:50;;;;;;;;;;;;;;;;;;1479386;40;7927;-65
2021/06/03 02:18:57;;;;;;;;;;;;;;;;;;1478475;40;7003;-63
2021/06/03 02:20:05;;;;;;;;;;;;;;;;;;1481053;40;7076;-63
2021/06/03 02:21:09;;;;;;;;;;;;;;;;;;1483029;40;7035;-63
2021/06/03 02:22:12;;;;;;;;;;;;;;;;;;1478820;40;7962;-63
2021/06/03 02:23:16;;;;;;;;;;;;;;;;;;1478728;40;7031;-64
2021/06/03 02:24:20;;;;;;;;;;;;;;;;;;1478794;40;7927;-65
2021/06/03 02:25:27;;;;;;;;;;;;;;;;;;1478587;40;7065;-63
2021/06/03 02:26:31;;;;;;;;;;;;;;;;;;1478571;40;7063;-62
2021/06/03 02:27:34;;;;;;;;;;;;;;;;;;1478732;40;7012;-63
2021/06/03 02:28:37;;;;;;;;;;;;;;;;;;1478655;40;7850;-61
2021/06/03 02:29:40;;;;;;;;;;;;;;;;;;1478845;40;7005;-65
2021/06/03 02:30:43;;;;;;;;;;;;;;;;;;1478814;40;7014;-65
2021/06/03 02:31:46;;;;;;;;;;;;;;;;;;1478866;40;7895;-65
2021/06/03 02:32:50;;;;;;;;;;;;;;;;;;1481188;40;7125;-62
2021/06/03 02:33:54;;;;;;;;;;;;;;;;;;1480752;40;7219;-66
2021/06/03 02:34:57;;;;;;;;;;;;;;;;;;1478840;40;7036;-65
2021/06/03 02:36:00;;;;;;;;;;;;;;;;;;1478337;40;7035;-64
2021/06/03 02:37:10;;;;;;;;;;;;;;;;;;1478114;40;7863;-64
2021/06/03 02:38:14;;;;;;;;;;;;;;;;;;1478927;40;7949;-64
2021/06/03 02:39:17;;;;;;;;;;;;;;;;;;1478713;40;7043;-64
2021/06/03 02:40:24;;;;;;;;;;;;;;;;;;1478849;40;7003;-63
2021/06/03 02:41:27;;;;;;;;;;;;;;;;;;1478702;40;7941;-62
2021/06/03 02:42:31;;;;;;;;;;;;;;;;;;1479383;40;7047;-66
2021/06/03 02:43:35;;;;;;;;;;;;;;;;;;1479464;40;7007;-65
2021/06/03 02:44:39;;;;;;;;;;;;;;;;;;1479510;40;7047;-64
2021/06/03 02:45:41;;;;;;;;;;;;;;;;;;1479275;40;7008;-62
2021/06/03 02:46:44;;;;;;;;;;;;;;;;;;1479747;40;7070;-64
2021/06/03 02:47:46;;;;;;;;;;;;;;;;;;1478886;40;8271;-63
2021/06/03 02:48:49;;;;;;;;;;;;;;;;;;1482728;40;7823;-63
2021/06/03 02:49:51;;;;;;;;;;;;;;;;;;1482563;40;7008;-61
2021/06/03 02:50:54;;;;;;;;;;;;;;;;;;1479422;40;7108;-64
2021/06/03 02:52:01;;;;;;;;;;;;;;;;;;1478907;40;7043;-65
2021/06/03 02:53:03;;;;;;;;;;;;;;;;;;1479032;40;7845;-63
2021/06/03 02:54:06;;;;;;;;;;;;;;;;;;1479101;40;7211;-65
2021/06/03 02:55:11;;;;;;;;;;;;;;;;;;1479325;40;7571;-63
2021/06/03 02:56:14;;;;;;;;;;;;;;;;;;1479272;40;7931;-67
2021/06/03 02:57:16;;;;;;;;;;;;;;;;;;1479294;40;7031;-65
2021/06/03 02:58:19;;;;;;;;;;;;;;;;;;1478929;40;7011;-65
2021/06/03 02:59:21;;;;;;;;;;;;;;;;;;1478957;40;7861;-63
2021/06/03 03:00:26;;;;;;;;;;;;;;;;;;1478527;40;7143;-62
2021/06/03 03:01:32;;;;;;;;;;;;;;;;;;1479013;40;7039;-64
2021/06/03 03:02:34;;;;;;;;;;;;;;;;;;1478848;40;7946;-63
2021/06/03 03:03:37;;;;;;;;;;;;;;;;;;1478916;40;7877;-65
2021/06/03 03:04:39;;;;;;;;;;;;;;;;;;1479266;40;7051;-64
2021/06/03 03:05:43;;;;;;;;;;;;;;;;;;1479306;40;7000;-63
2021/06/03 03:06:45;;;;;;;;;;;;;;;;;;1478799;40;7108;-63
2021/06/03 03:07:49;;;;;;;;;;;;;;;;;;1478887;40;7000;-65
2021/06/03 03:08:51;;;;;;;;;;;;;;;;;;1478926;40;7131;-61
2021/06/03 03:09:55;;;;;;;;;;;;;;;;;;1479060;40;7035;-62
2021/06/03 03:11:00;;;;;;;;;;;;;;;;;;1478723;40;6999;-62
2021/06/03 03:12:03;;;;;;;;;;;;;;;;;;1479001;40;7931;-64
2021/06/03 03:13:06;;;;;;;;;;;;;;;;;;1478842;40;7035;-64
2021/06/03 03:14:09;;;;;;;;;;;;;;;;;;1478929;40;7009;-63
2021/06/03 03:15:13;;;;;;;;;;;;;;;;;;1479180;40;7000;-64
2021/06/03 03:16:15;;;;;;;;;;;;;;;;;;1478906;40;6999;-63
2021/06/03 03:17:18;;;;;;;;;;;;;;;;;;1478450;40;6999;-65
2021/06/03 03:18:20;;;;;;;;;;;;;;;;;;1482562;40;7055;-63
2021/06/03 03:19:23;;;;;;;;;;;;;;;;;;1480135;40;7043;-65
2021/06/03 03:20:28;;;;;;;;;;;;;;;;;;1482660;40;7885;-65
2021/06/03 03:21:31;;;;;;;;;;;;;;;;;;1481036;40;7039;-62
2021/06/03 03:22:33;;;;;;;;;;;;;;;;;;1478682;40;7954;-64
2021/06/03 03:23:36;;;;;;;;;;;;;;;;;;1478779;40;7970;-64
2021/06/03 03:24:38;;;;;;;;;;;;;;;;;;1479029;40;7031;-66
2021/06/03 03:25:41;;;;;;;;;;;;;;;;;;1479078;40;7032;-67
2021/06/03 03:26:43;;;;;;;;;;;;;;;;;;1478955;40;7011;-62
2021/06/03 03:27:47;;;;;;;;;;;;;;;;;;1478584;40;7007;-63
2021/06/03 03:28:50;;;;;;;;;;;;;;;;;;1478645;40;7043;-62
2021/06/03 03:29:52;;;;;;;;;;;;;;;;;;1478861;40;7851;-62
2021/06/03 03:30:55;;;;;;;;;;;;;;;;;;1478574;40;7079;-63
2021/06/03 03:31:57;;;;;;;;;;;;;;;;;;1480290;40;7092;-65
2021/06/03 03:33:00;;;;;;;;;;;;;;;;;;1483185;40;8144;-62
2021/06/03 03:34:03;;;;;;;;;;;;;;;;;;1479660;40;7039;-64
2021/06/03 03:35:07;;;;;;;;;;;;;;;;;;1478872;40;7903;-62
2021/06/03 03:36:09;;;;;;;;;;;;;;;;;;1478642;40;7837;-63
2021/06/03 03:37:12;;;;;;;;;;;;;;;;;;1478208;40;7054;-63
2021/06/03 03:38:15;;;;;;;;;;;;;;;;;;1479260;40;7007;-64
2021/06/03 03:39:18;;;;;;;;;;;;;;;;;;1479437;40;7019;-64
2021/06/03 03:40:22;;;;;;;;;;;;;;;;;;1479435;40;7083;-64
2021/06/03 03:41:25;;;;;;;;;;;;;;;;;;1479461;40;7003;-64
2021/06/03 03:42:27;;;;;;;;;;;;;;;;;;1479278;40;7883;-62
2021/06/03 03:43:30;;;;;;;;;;;;;;;;;;1478929;40;7008;-63
2021/06/03 03:44:32;;;;;;;;;;;;;;;;;;1478627;40;7040;-63
2021/06/03 03:45:35;;;;;;;;;;;;;;;;;;1478866;40;7980;-64
2021/06/03 03:46:37;;;;;;;;;;;;;;;;;;1478648;40;7035;-63
2021/06/03 03:47:40;;;;;;;;;;;;;;;;;;1479353;40;7104;-64
2021/06/03 03:48:43;;;;;;;;;;;;;;;;;;1479160;40;7998;-65
2021/06/03 03:49:45;;;;;;;;;;;;;;;;;;1479118;40;7008;-63
2021/06/03 03:50:48;;;;;;;;;;;;;;;;;;1478669;40;7218;-64
2021/06/03 03:51:50;;;;;;;;;;;;;;;;;;1478954;40;7454;-64
2021/06/03 03:52:53;;;;;;;;;;;;;;;;;;1478782;40;7914;-66
2021/06/03 03:53:55;;;;;;;;;;;;;;;;;;1479267;40;7012;-63
2021/06/03 03:54:59;;;;;;;;;;;;;;;;;;1478606;40;7144;-63
2021/06/03 03:56:02;;;;;;;;;;;;;;;;;;1478906;40;7023;-63
2021/06/03 03:57:04;;;;;;;;;;;;;;;;;;1478837;40;7012;-66
2021/06/03 03:58:07;;;;;;;;;;;;;;;;;;1478928;40;7046;-63
2021/06/03 03:59:09;;;;;;;;;;;;;;;;;;1478861;40;7209;-65
2021/06/03 04:00:17;;;;;;;;;;;;;;;;;;1479051;40;7187;-64
2021/06/03 04:01:20;;;;;;;;;;;;;;;;;;1478708;40;7035;-65
2021/06/03 04:02:23;;;;;;;;;;;;;;;;;;1479016;40;7007;-64
2021/06/03 04:03:25;;;;;;;;;;;;;;;;;;1478785;40;8800;-63
2021/06/03 04:04:28;;;;;;;;;;;;;;;;;;1479229;40;7039;-63
2021/06/03 04:05:30;;;;;;;;;;;;;;;;;;1478679;40;7039;-65
2021/06/03 04:06:32;;;;;;;;;;;;;;;;;;1479078;40;7035;-62
2021/06/03 04:07:37;;;;;;;;;;;;;;;;;;1478689;40;7849;-63
2021/06/03 04:08:40;;;;;;;;;;;;;;;;;;1478865;40;7043;-63
2021/06/03 04:09:42;;;;;;;;;;;;;;;;;;1478999;40;7007;-65
2021/06/03 04:10:44;;;;;;;;;;;;;;;;;;1479312;39;7026;-65
2021/06/03 04:11:47;;;;;;;;;;;;;;;;;;1478817;40;7008;-64
2021/06/03 04:12:50;;;;;;;;;;;;;;;;;;1479318;40;7036;-61
2021/06/03 04:13:53;;;;;;;;;;;;;;;;;;1479156;40;7219;-63
2021/06/03 04:14:55;;;;;;;;;;;;;;;;;;1479224;40;7131;-63
2021/06/03 04:15:58;;;;;;;;;;;;;;;;;;1478890;40;7000;-63
2021/06/03 04:17:00;;;;;;;;;;;;;;;;;;1478613;40;7098;-64
2021/06/03 04:18:03;;;;;;;;;;;;;;;;;;1479034;40;6999;-62
2021/06/03 04:19:05;;;;;;;;;;;;;;;;;;1480678;40;7117;-63
2021/06/03 04:20:09;;;;;;;;;;;;;;;;;;1478485;40;7227;-63
2021/06/03 04:21:12;;;;;;;;;;;;;;;;;;1479018;40;7031;-63
2021/06/03 04:22:14;;;;;;;;;;;;;;;;;;1480661;40;7007;-63
2021/06/03 04:23:17;;;;;;;;;;;;;;;;;;1483122;40;7051;-65
2021/06/03 04:24:19;;;;;;;;;;;;;;;;;;1481916;40;7015;-64
2021/06/03 04:25:21;;;;;;;;;;;;;;;;;;1478428;40;7000;-66
2021/06/03 04:26:24;;;;;;;;;;;;;;;;;;1478263;40;7926;-62
2021/06/03 04:27:26;;;;;;;;;;;;;;;;;;1478583;40;7007;-63
2021/06/03 04:28:29;;;;;;;;;;;;;;;;;;1478877;40;7046;-63
2021/06/03 04:29:31;;;;;;;;;;;;;;;;;;1478910;40;7007;-65
2021/06/03 04:30:34;;;;;;;;;;;;;;;;;;1478531;40;7858;-64
2021/06/03 04:31:37;;;;;;;;;;;;;;;;;;1478362;40;7906;-65
2021/06/03 04:32:40;;;;;;;;;;;;;;;;;;1478421;40;7946;-62
2021/06/03 04:33:42;;;;;;;;;;;;;;;;;;1478884;40;7048;-64
2021/06/03 04:34:44;;;;;;;;;;;;;;;;;;1478494;40;7210;-64
2021/06/03 04:35:47;;;;;;;;;;;;;;;;;;1478961;40;7067;-63
2021/06/03 04:36:49;;;;;;;;;;;;;;;;;;1477199;40;7003;-64
2021/06/03 04:37:52;;;;;;;;;;;;;;;;;;1478113;40;7208;-63
2021/06/03 04:38:55;;;;;;;;;;;;;;;;;;1478745;40;7076;-65
2021/06/03 04:39:58;;;;;;;;;;;;;;;;;;1478803;40;6999;-67
2021/06/03 04:41:00;;;;;;;;;;;;;;;;;;1479809;40;7000;-67
2021/06/03 04:42:03;;;;;;;;;;;;;;;;;;1483356;40;7008;-66
2021/06/03 04:43:07;;;;;;;;;;;;;;;;;;1483381;40;7028;-63
2021/06/03 04:44:09;;;;;;;;;;;;;;;;;;1483018;40;7007;-66
2021/06/03 04:45:13;;;;;;;;;;;;;;;;;;1482958;40;7043;-63
2021/06/03 04:46:15;;;;;;;;;;;;;;;;;;1483180;40;8001;-63
2021/06/03 04:47:18;;;;;;;;;;;;;;;;;;1482829;40;6999;-68
2021/06/03 04:48:20;;;;;;;;;;;;;;;;;;1483234;40;7003;-64
2021/06/03 04:49:23;;;;;;;;;;;;;;;;;;1478950;40;7923;-63
2021/06/03 04:50:25;;;;;;;;;;;;;;;;;;1479357;40;7936;-64
2021/06/03 04:51:28;;;;;;;;;;;;;;;;;;1479004;40;7121;-62
2021/06/03 04:52:31;;;;;;;;;;;;;;;;;;1478720;40;7938;-66
2021/06/03 04:53:34;;;;;;;;;;;;;;;;;;1482262;40;7108;-66
2021/06/03 04:54:36;;;;;;;;;;;;;;;;;;1482189;40;7950;-64
2021/06/03 04:55:38;;;;;;;;;;;;;;;;;;1479012;40;7039;-65
2021/06/03 04:56:41;;;;;;;;;;;;;;;;;;1478689;40;7035;-64
2021/06/03 04:57:44;;;;;;;;;;;;;;;;;;1478398;40;7115;-65
2021/06/03 04:58:47;;;;;;;;;;;;;;;;;;1478688;40;7012;-64
2021/06/03 04:59:49;;;;;;;;;;;;;;;;;;1478439;40;7843;-63
2021/06/03 05:00:51;;;;;;;;;;;;;;;;;;1479087;40;7003;-66
2021/06/03 05:01:54;;;;;;;;;;;;;;;;;;1479038;40;7037;-64
2021/06/03 05:02:57;;;;;;;;;;;;;;;;;;1479222;40;7084;-66
2021/06/03 05:04:00;;;;;;;;;;;;;;;;;;1478890;40;7004;-64
2021/06/03 05:05:03;;;;;;;;;;;;;;;;;;1479230;40;8074;-64
2021/06/03 05:06:06;;;;;;;;;;;;;;;;;;1479324;40;7185;-66
2021/06/03 05:07:10;;;;;;;;;;;;;;;;;;1479391;39;7115;-66
2021/06/03 05:08:12;;;;;;;;;;;;;;;;;;1478792;40;7035;-63
2021/06/03 05:09:15;;;;;;;;;;;;;;;;;;1478938;40;7059;-65
2021/06/03 05:10:23;;;;;;;;;;;;;;;;;;1478845;40;7035;-65
2021/06/03 05:11:25;;;;;;;;;;;;;;;;;;1478839;40;7042;-65
2021/06/03 05:12:28;;;;;;;;;;;;;;;;;;1478876;40;7051;-62
2021/06/03 05:13:31;;;;;;;;;;;;;;;;;;1478968;40;7905;-64
2021/06/03 05:14:33;;;;;;;;;;;;;;;;;;1479044;40;7004;-65
2021/06/03 05:15:36;;;;;;;;;;;;;;;;;;1478632;40;7872;-63
2021/06/03 05:16:41;;;;;;;;;;;;;;;;;;1478485;40;7852;-66
2021/06/03 05:17:44;;;;;;;;;;;;;;;;;;1481123;40;7007;-63
2021/06/03 05:18:47;;;;;;;;;;;;;;;;;;1482668;40;6999;-66
2021/06/03 05:19:49;;;;;;;;;;;;;;;;;;1478377;40;7865;-62
2021/06/03 05:20:52;;;;;;;;;;;;;;;;;;1478628;40;7035;-63
2021/06/03 05:21:54;;;;;;;;;;;;;;;;;;1481535;40;7167;-63
2021/06/03 05:22:58;;;;;;;;;;;;;;;;;;1480864;40;6999;-64
2021/06/03 05:24:00;;;;;;;;;;;;;;;;;;1478338;40;7890;-65
2021/06/03 05:25:04;;;;;;;;;;;;;;;;;;1478539;40;8525;-63
2021/06/03 05:26:06;;;;;;;;;;;;;;;;;;1478017;40;7035;-63
2021/06/03 05:27:09;;;;;;;;;;;;;;;;;;1478374;40;7098;-65
2021/06/03 05:28:12;;;;;;;;;;;;;;;;;;1478225;40;7027;-64
2021/06/03 05:29:15;;;;;;;;;;;;;;;;;;1478424;40;7163;-66
2021/06/03 05:30:18;;;;;;;;;;;;;;;;;;1479803;40;7855;-64
2021/06/03 05:31:20;;;;;;;;;;;;;;;;;;1482746;40;7004;-64
2021/06/03 05:32:23;;;;;;;;;;;;;;;;;;1478447;40;7121;-64
2021/06/03 05:33:26;;;;;;;;;;;;;;;;;;1478140;40;7019;-66
2021/06/03 05:34:28;;;;;;;;;;;;;;;;;;1478538;40;7008;-62
2021/06/03 05:35:31;;;;;;;;;;;;;;;;;;1478533;40;7914;-64
2021/06/03 05:36:33;;;;;;;;;;;;;;;;;;1478052;40;7101;-62
2021/06/03 05:37:36;;;;;;;;;;;;;;;;;;1478653;40;7031;-64
2021/06/03 05:38:38;;;;;;;;;;;;;;;;;;1478273;40;7003;-62
2021/06/03 05:39:41;;;;;;;;;;;;;;;;;;1478888;40;7061;-63
2021/06/03 05:40:43;;;;;;;;;;;;;;;;;;1478587;40;7051;-62
2021/06/03 05:41:46;;;;;;;;;;;;;;;;;;1479126;39;7121;-63
2021/06/03 05:42:49;;;;;;;;;;;;;;;;;;1478209;40;7886;-66
2021/06/03 05:43:52;;;;;;;;;;;;;;;;;;1478592;40;7031;-65
2021/06/03 05:44:54;;;;;;;;;;;;;;;;;;1478572;40;7928;-64
2021/06/03 05:45:57;;;;;;;;;;;;;;;;;;1477856;40;7968;-62
2021/06/03 05:47:00;;;;;;;;;;;;;;;;;;1478408;40;7112;-64
2021/06/03 05:48:02;;;;;;;;;;;;;;;;;;1478511;40;7103;-63
2021/06/03 05:49:05;;;;;;;;;;;;;;;;;;1478704;40;7149;-61
2021/06/03 05:50:09;;;;;;;;;;;;;;;;;;1478831;40;7008;-62
2021/06/03 05:51:12;;;;;;;;;;;;;;;;;;1478468;40;7031;-64
2021/06/03 05:52:14;;;;;;;;;;;;;;;;;;1478699;40;7007;-66
2021/06/03 05:53:17;;;;;;;;;;;;;;;;;;1478973;40;7011;-63
2021/06/03 05:54:19;;;;;;;;;;;;;;;;;;1478759;40;7906;-64
2021/06/03 05:55:22;;;;;;;;;;;;;;;;;;1478474;40;7003;-66
2021/06/03 05:56:25;;;;;;;;;;;;;;;;;;1478320;40;7927;-63
2021/06/03 05:57:27;;;;;;;;;;;;;;;;;;1478310;40;6999;-65
2021/06/03 05:58:30;;;;;;;;;;;;;;;;;;1478894;40;6999;-62
2021/06/03 05:59:32;;;;;;;;;;;;;;;;;;1478651;40;7942;-64
2021/06/03 06:00:36;;;;;;;;;;;;;;;;;;1478903;40;7178;-66
2021/06/03 06:01:38;;;;;;;;;;;;;;;;;;1478511;40;7910;-66
2021/06/03 06:03:04;;;;;;;;;;;;;;;;;;1478293;40;7035;-64
2021/06/03 06:06:32;;;;;;;;;;;;;;;;;;1478171;40;7041;-67
2021/06/03 06:07:37;;;;;;;;;;;;;;;;;;1478688;40;7012;-65
2021/06/03 06:08:39;;;;;;;;;;;;;;;;;;1478045;40;7888;-63
2021/06/03 06:09:42;;;;;;;;;;;;;;;;;;1479082;40;7035;-61
2021/06/03 06:10:44;;;;;;;;;;;;;;;;;;1478597;40;7016;-65
2021/06/03 06:11:47;;;;;;;;;;;;;;;;;;1479079;40;7007;-64
2021/06/03 06:12:50;;;;;;;;;;;;;;;;;;1478955;40;7012;-65
2021/06/03 06:13:52;;;;;;;;;;;;;;;;;;1479095;40;7027;-64
2021/06/03 06:14:54;;;;;;;;;;;;;;;;;;1479259;40;7040;-67
2021/06/03 06:15:57;;;;;;;;;;;;;;;;;;1479275;40;7873;-65
2021/06/03 06:16:59;;;;;;;;;;;;;;;;;;1478733;40;7887;-64
2021/06/03 06:18:03;;;;;;;;;;;;;;;;;;1479902;40;9064;-65
2021/06/03 06:19:07;;;;;;;;;;;;;;;;;;1478585;40;7008;-64
2021/06/03 06:20:10;;;;;;;;;;;;;;;;;;1482944;40;7160;-66
2021/06/03 06:21:15;;;;;;;;;;;;;;;;;;1483020;40;7012;-68
2021/06/03 06:22:17;;;;;;;;;;;;;;;;;;1479124;40;7020;-66
2021/06/03 06:23:20;;;;;;;;;;;;;;;;;;1481264;40;7115;-66
2021/06/03 06:24:23;;;;;;;;;;;;;;;;;;1478919;40;7126;-65
2021/06/03 06:25:26;;;;;;;;;;;;;;;;;;1482134;40;7586;-64
2021/06/03 06:26:30;;;;;;;;;;;;;;;;;;1479920;40;7106;-65
2021/06/03 06:27:33;;;;;;;;;;;;;;;;;;1478576;40;7008;-63
2021/06/03 06:28:36;;;;;;;;;;;;;;;;;;1478609;40;7228;-66
2021/06/03 06:29:38;;;;;;;;;;;;;;;;;;1478857;40;7035;-65
2021/06/03 06:30:42;;;;;;;;;;;;;;;;;;1479433;40;7230;-65
2021/06/03 06:31:44;;;;;;;;;;;;;;;;;;1478740;40;7012;-63
2021/06/03 06:32:47;;;;;;;;;;;;;;;;;;1479057;40;7177;-64
2021/06/03 06:33:50;;;;;;;;;;;;;;;;;;1479219;40;6999;-64
2021/06/03 06:34:52;;;;;;;;;;;;;;;;;;1483298;40;7191;-67
2021/06/03 06:35:55;;;;;;;;;;;;;;;;;;1483100;40;7000;-66
2021/06/03 06:36:57;;;;;;;;;;;;;;;;;;1482462;40;7195;-65
2021/06/03 06:38:01;;;;;;;;;;;;;;;;;;1483016;40;7120;-63
2021/06/03 06:39:05;;;;;;;;;;;;;;;;;;1479499;40;7007;-67
2021/06/03 06:40:09;;;;;;;;;;;;;;;;;;1482947;40;7737;-66
2021/06/03 06:41:11;;;;;;;;;;;;;;;;;;1482691;40;7008;-63
2021/06/03 06:42:14;;;;;;;;;;;;;;;;;;1479230;40;7029;-66
2021/06/03 06:43:16;;;;;;;;;;;;;;;;;;1479174;40;8308;-63
2021/06/03 06:44:19;;;;;;;;;;;;;;;;;;1479130;40;7920;-65
2021/06/03 06:45:23;;;;;;;;;;;;;;;;;;1478993;40;8009;-68
2021/06/03 06:46:25;;;;;;;;;;;;;;;;;;1479084;40;7007;-67
2021/06/03 06:47:28;;;;;;;;;;;;;;;;;;1479282;40;7008;-66
2021/06/03 06:48:31;;;;;;;;;;;;;;;;;;1478772;40;7008;-67
2021/06/03 06:49:33;;;;;;;;;;;;;;;;;;1479199;40;7119;-65
2021/06/03 06:50:38;;;;;;;;;;;;;;;;;;1479374;40;7051;-64
2021/06/03 06:51:40;;;;;;;;;;;;;;;;;;1479381;40;7048;-67
2021/06/03 06:52:43;;;;;;;;;;;;;;;;;;1478477;40;7117;-67
2021/06/03 06:53:45;;;;;;;;;;;;;;;;;;1478452;40;7003;-65
2021/06/03 06:54:47;;;;;;;;;;;;;;;;;;1479159;40;7000;-65
2021/06/03 06:55:50;;;;;;;;;;;;;;;;;;1479346;40;7031;-65
2021/06/03 06:56:52;;;;;;;;;;;;;;;;;;1479615;40;7226;-67
2021/06/03 06:57:55;;;;;;;;;;;;;;;;;;1479118;40;7039;-66
2021/06/03 06:58:58;;;;;;;;;;;;;;;;;;1481109;40;6995;-64
2021/06/03 07:00:02;;;;;;;;;;;;;;;;;;1483101;40;6999;-65
2021/06/03 07:01:04;;;;;;;;;;;;;;;;;;1483316;40;7383;-66
2021/06/03 07:02:07;;;;;;;;;;;;;;;;;;1483004;40;7012;-63
2021/06/03 07:03:10;;;;;;;;;;;;;;;;;;1483367;40;7927;-64
2021/06/03 07:04:13;;;;;;;;;;;;;;;;;;1483523;40;7062;-63
2021/06/03 07:05:15;;;;;;;;;;;;;;;;;;1483582;40;7007;-62
2021/06/03 07:06:17;;;;;;;;;;;;;;;;;;1483302;40;7051;-62
2021/06/03 07:07:20;;;;;;;;;;;;;;;;;;1482453;40;7019;-64
2021/06/03 07:08:22;;;;;;;;;;;;;;;;;;1483261;40;7893;-65
2021/06/03 07:09:25;;;;;;;;;;;;;;;;;;1483615;40;7011;-64
2021/06/03 07:10:27;;;;;;;;;;;;;;;;;;1483400;40;7215;-66
2021/06/03 07:11:29;;;;;;;;;;;;;;;;;;1483628;40;7007;-67
2021/06/03 07:12:48;;;;;;;;;;;;;;;;;;1483337;40;7031;-67
2021/06/03 07:13:51;;;;;;;;;;;;;;;;;;1483594;40;7051;-66
2021/06/03 07:14:54;;;;;;;;;;;;;;;;;;1481533;39;7104;-65
2021/06/03 07:15:56;;;;;;;;;;;;;;;;;;1478592;40;7928;-65
2021/06/03 07:16:59;;;;;;;;;;;;;;;;;;1478955;40;7060;-65
2021/06/03 07:18:02;;;;;;;;;;;;;;;;;;1482062;40;7888;-64
2021/06/03 07:19:04;;;;;;;;;;;;;;;;;;1480962;40;7012;-64
2021/06/03 07:20:11;;;;;;;;;;;;;;;;;;1478881;40;7003;-65
2021/06/03 07:21:13;;;;;;;;;;;;;;;;;;1478816;40;7023;-66
2021/06/03 07:22:16;;;;;;;;;;;;;;;;;;1482767;40;7011;-68
2021/06/03 07:23:20;;;;;;;;;;;;;;;;;;1480400;40;7015;-64